sensor_id;sensor_type;location;lat;lon;timestamp;temperature;humidity
41557;DHT22;27720;51.992;5.890;2023-05-20T00:01:29;15.60;68.70
41557;DHT22;27720;51.992;5.890;2023-05-20T00:03:55;15.50;68.90
41557;DHT22;27720;51.992;5.890;2023-05-20T00:06:22;15.50;69.10
41557;DHT22;27720;51.992;5.890;2023-05-20T00:08:47;15.40;69.20
41557;DHT22;27720;51.992;5.890;2023-05-20T00:11:13;15.40;70.00
41557;DHT22;27720;51.992;5.890;2023-05-20T00:13:39;15.40;69.40
41557;DHT22;27720;51.992;5.890;2023-05-20T00:16:05;15.40;69.60
41557;DHT22;27720;51.992;5.890;2023-05-20T00:18:31;15.30;69.80
41557;DHT22;27720;51.992;5.890;2023-05-20T00:20:57;15.30;69.90
41557;DHT22;27720;51.992;5.890;2023-05-20T00:23:23;15.30;69.80
41557;DHT22;27720;51.992;5.890;2023-05-20T00:25:49;15.30;69.90
41557;DHT22;27720;51.992;5.890;2023-05-20T00:28:15;15.30;70.10
41557;DHT22;27720;51.992;5.890;2023-05-20T00:30:41;15.20;70.20
41557;DHT22;27720;51.992;5.890;2023-05-20T00:33:06;15.30;70.20
41557;DHT22;27720;51.992;5.890;2023-05-20T00:35:32;15.20;70.20
41557;DHT22;27720;51.992;5.890;2023-05-20T00:37:58;15.30;70.50
41557;DHT22;27720;51.992;5.890;2023-05-20T00:40:24;15.20;70.60
41557;DHT22;27720;51.992;5.890;2023-05-20T00:42:50;15.20;70.80
41557;DHT22;27720;51.992;5.890;2023-05-20T00:45:16;15.10;71.00
41557;DHT22;27720;51.992;5.890;2023-05-20T00:47:42;15.10;71.10
41557;DHT22;27720;51.992;5.890;2023-05-20T00:50:08;15.10;71.10
41557;DHT22;27720;51.992;5.890;2023-05-20T00:52:35;15.10;71.20
41557;DHT22;27720;51.992;5.890;2023-05-20T00:55:02;15.10;71.30
41557;DHT22;27720;51.992;5.890;2023-05-20T00:57:28;15.00;71.70
41557;DHT22;27720;51.992;5.890;2023-05-20T00:59:54;15.00;71.90
41557;DHT22;27720;51.992;5.890;2023-05-20T01:02:23;15.00;72.10
41557;DHT22;27720;51.992;5.890;2023-05-20T01:04:49;15.00;72.10
41557;DHT22;27720;51.992;5.890;2023-05-20T01:07:16;15.00;72.00
41557;DHT22;27720;51.992;5.890;2023-05-20T01:09:42;15.00;72.20
41557;DHT22;27720;51.992;5.890;2023-05-20T01:12:12;15.00;72.40
41557;DHT22;27720;51.992;5.890;2023-05-20T01:14:48;14.90;72.60
41557;DHT22;27720;51.992;5.890;2023-05-20T01:17:15;14.90;72.90
41557;DHT22;27720;51.992;5.890;2023-05-20T01:19:46;14.80;73.30
41557;DHT22;27720;51.992;5.890;2023-05-20T01:22:14;14.80;73.30
41557;DHT22;27720;51.992;5.890;2023-05-20T01:24:43;14.80;73.40
41557;DHT22;27720;51.992;5.890;2023-05-20T01:27:10;14.80;74.10
41557;DHT22;27720;51.992;5.890;2023-05-20T01:29:40;14.80;73.60
41557;DHT22;27720;51.992;5.890;2023-05-20T01:32:14;14.80;73.60
41557;DHT22;27720;51.992;5.890;2023-05-20T01:34:42;14.80;73.60
41557;DHT22;27720;51.992;5.890;2023-05-20T01:37:09;14.70;73.70
41557;DHT22;27720;51.992;5.890;2023-05-20T01:39:38;14.80;73.80
41557;DHT22;27720;51.992;5.890;2023-05-20T01:42:07;14.70;73.90
41557;DHT22;27720;51.992;5.890;2023-05-20T01:44:34;14.70;73.90
41557;DHT22;27720;51.992;5.890;2023-05-20T01:47:00;14.80;73.90
41557;DHT22;27720;51.992;5.890;2023-05-20T01:49:26;14.70;73.90
41557;DHT22;27720;51.992;5.890;2023-05-20T01:51:52;14.70;74.10
41557;DHT22;27720;51.992;5.890;2023-05-20T01:54:18;14.70;74.30
41557;DHT22;27720;51.992;5.890;2023-05-20T01:56:45;14.70;75.30
41557;DHT22;27720;51.992;5.890;2023-05-20T01:59:11;14.70;74.70
41557;DHT22;27720;51.992;5.890;2023-05-20T02:01:38;14.70;74.80
41557;DHT22;27720;51.992;5.890;2023-05-20T02:04:04;14.70;74.70
41557;DHT22;27720;51.992;5.890;2023-05-20T02:06:30;14.70;74.60
41557;DHT22;27720;51.992;5.890;2023-05-20T02:08:56;14.70;74.90
41557;DHT22;27720;51.992;5.890;2023-05-20T02:11:21;14.70;75.00
41557;DHT22;27720;51.992;5.890;2023-05-20T02:13:53;14.60;75.00
41557;DHT22;27720;51.992;5.890;2023-05-20T02:16:19;14.70;75.20
41557;DHT22;27720;51.992;5.890;2023-05-20T02:18:44;14.70;75.10
41557;DHT22;27720;51.992;5.890;2023-05-20T02:21:15;14.70;75.30
41557;DHT22;27720;51.992;5.890;2023-05-20T02:23:40;14.50;75.70
41557;DHT22;27720;51.992;5.890;2023-05-20T02:26:06;14.50;76.10
41557;DHT22;27720;51.992;5.890;2023-05-20T02:28:35;14.50;76.10
41557;DHT22;27720;51.992;5.890;2023-05-20T02:31:04;14.50;76.00
41557;DHT22;27720;51.992;5.890;2023-05-20T02:33:33;14.50;76.00
41557;DHT22;27720;51.992;5.890;2023-05-20T02:35:59;14.50;76.10
41557;DHT22;27720;51.992;5.890;2023-05-20T02:38:25;14.50;76.10
41557;DHT22;27720;51.992;5.890;2023-05-20T02:40:51;14.50;76.10
41557;DHT22;27720;51.992;5.890;2023-05-20T02:43:16;14.50;76.00
41557;DHT22;27720;51.992;5.890;2023-05-20T02:45:42;14.60;76.10
41557;DHT22;27720;51.992;5.890;2023-05-20T02:48:08;14.60;76.20
41557;DHT22;27720;51.992;5.890;2023-05-20T02:50:37;14.50;76.30
41557;DHT22;27720;51.992;5.890;2023-05-20T02:53:04;14.50;76.50
41557;DHT22;27720;51.992;5.890;2023-05-20T02:55:33;14.50;76.50
41557;DHT22;27720;51.992;5.890;2023-05-20T02:57:59;14.50;76.60
41557;DHT22;27720;51.992;5.890;2023-05-20T03:00:25;14.50;76.60
41557;DHT22;27720;51.992;5.890;2023-05-20T03:02:53;14.40;76.70
41557;DHT22;27720;51.992;5.890;2023-05-20T03:05:18;14.40;76.90
41557;DHT22;27720;51.992;5.890;2023-05-20T03:07:44;14.40;77.10
41557;DHT22;27720;51.992;5.890;2023-05-20T03:10:10;14.40;77.10
41557;DHT22;27720;51.992;5.890;2023-05-20T03:12:38;14.30;77.30
41557;DHT22;27720;51.992;5.890;2023-05-20T03:15:05;14.30;77.50
41557;DHT22;27720;51.992;5.890;2023-05-20T03:17:31;14.20;77.50
41557;DHT22;27720;51.992;5.890;2023-05-20T03:19:56;14.20;77.50
41557;DHT22;27720;51.992;5.890;2023-05-20T03:22:22;14.20;77.70
41557;DHT22;27720;51.992;5.890;2023-05-20T03:24:48;14.20;77.90
41557;DHT22;27720;51.992;5.890;2023-05-20T03:27:13;14.10;78.00
41557;DHT22;27720;51.992;5.890;2023-05-20T03:29:39;14.10;78.20
41557;DHT22;27720;51.992;5.890;2023-05-20T03:32:05;14.10;78.30
41557;DHT22;27720;51.992;5.890;2023-05-20T03:34:31;14.10;78.30
41557;DHT22;27720;51.992;5.890;2023-05-20T03:36:57;14.10;78.30
41557;DHT22;27720;51.992;5.890;2023-05-20T03:39:25;14.10;78.30
41557;DHT22;27720;51.992;5.890;2023-05-20T03:41:50;14.10;78.40
41557;DHT22;27720;51.992;5.890;2023-05-20T03:44:16;14.10;78.40
41557;DHT22;27720;51.992;5.890;2023-05-20T03:46:42;14.10;78.60
41557;DHT22;27720;51.992;5.890;2023-05-20T03:49:07;14.10;78.80
41557;DHT22;27720;51.992;5.890;2023-05-20T03:51:33;14.00;79.10
41557;DHT22;27720;51.992;5.890;2023-05-20T03:54:04;14.00;79.40
41557;DHT22;27720;51.992;5.890;2023-05-20T03:56:30;13.90;79.60
41557;DHT22;27720;51.992;5.890;2023-05-20T03:58:56;13.90;79.70
41557;DHT22;27720;51.992;5.890;2023-05-20T04:01:22;13.80;79.90
41557;DHT22;27720;51.992;5.890;2023-05-20T04:03:50;13.80;79.90
41557;DHT22;27720;51.992;5.890;2023-05-20T04:06:16;13.80;79.80
41557;DHT22;27720;51.992;5.890;2023-05-20T04:08:42;13.90;79.80
41557;DHT22;27720;51.992;5.890;2023-05-20T04:11:07;13.90;79.80
41557;DHT22;27720;51.992;5.890;2023-05-20T04:13:33;13.90;80.00
41557;DHT22;27720;51.992;5.890;2023-05-20T04:15:59;13.80;80.00
41557;DHT22;27720;51.992;5.890;2023-05-20T04:18:27;13.80;80.50
41557;DHT22;27720;51.992;5.890;2023-05-20T04:20:56;13.80;80.60
41557;DHT22;27720;51.992;5.890;2023-05-20T04:23:22;13.70;80.70
41557;DHT22;27720;51.992;5.890;2023-05-20T04:25:48;13.70;80.70
41557;DHT22;27720;51.992;5.890;2023-05-20T04:28:14;13.70;80.70
41557;DHT22;27720;51.992;5.890;2023-05-20T04:30:41;13.70;80.80
41557;DHT22;27720;51.992;5.890;2023-05-20T04:33:10;13.70;80.90
41557;DHT22;27720;51.992;5.890;2023-05-20T04:35:36;13.70;81.10
41557;DHT22;27720;51.992;5.890;2023-05-20T04:38:07;13.70;81.20
41557;DHT22;27720;51.992;5.890;2023-05-20T04:40:33;13.70;81.30
41557;DHT22;27720;51.992;5.890;2023-05-20T04:42:59;13.70;81.50
41557;DHT22;27720;51.992;5.890;2023-05-20T04:45:25;13.70;81.50
41557;DHT22;27720;51.992;5.890;2023-05-20T04:47:51;13.70;81.50
41557;DHT22;27720;51.992;5.890;2023-05-20T04:50:17;13.70;81.70
41557;DHT22;27720;51.992;5.890;2023-05-20T04:52:44;13.70;81.70
41557;DHT22;27720;51.992;5.890;2023-05-20T04:55:11;13.70;81.70
41557;DHT22;27720;51.992;5.890;2023-05-20T04:57:38;13.80;81.80
41557;DHT22;27720;51.992;5.890;2023-05-20T05:00:07;13.80;81.90
41557;DHT22;27720;51.992;5.890;2023-05-20T05:02:34;13.80;81.90
41557;DHT22;27720;51.992;5.890;2023-05-20T05:05:00;13.80;82.10
41557;DHT22;27720;51.992;5.890;2023-05-20T05:07:26;13.80;82.00
41557;DHT22;27720;51.992;5.890;2023-05-20T05:09:52;13.80;82.20
41557;DHT22;27720;51.992;5.890;2023-05-20T05:12:18;13.80;82.20
41557;DHT22;27720;51.992;5.890;2023-05-20T05:14:43;13.90;82.20
41557;DHT22;27720;51.992;5.890;2023-05-20T05:17:09;13.80;82.30
41557;DHT22;27720;51.992;5.890;2023-05-20T05:19:35;13.90;82.20
41557;DHT22;27720;51.992;5.890;2023-05-20T05:22:01;13.90;82.20
41557;DHT22;27720;51.992;5.890;2023-05-20T05:24:28;14.00;82.20
41557;DHT22;27720;51.992;5.890;2023-05-20T05:26:55;14.00;82.20
41557;DHT22;27720;51.992;5.890;2023-05-20T05:29:21;14.00;82.10
41557;DHT22;27720;51.992;5.890;2023-05-20T05:31:47;14.10;82.30
41557;DHT22;27720;51.992;5.890;2023-05-20T05:34:13;14.10;82.40
41557;DHT22;27720;51.992;5.890;2023-05-20T05:36:39;14.20;82.40
41557;DHT22;27720;51.992;5.890;2023-05-20T05:39:05;14.20;82.40
41557;DHT22;27720;51.992;5.890;2023-05-20T05:41:32;14.30;82.60
41557;DHT22;27720;51.992;5.890;2023-05-20T05:43:58;14.30;82.40
41557;DHT22;27720;51.992;5.890;2023-05-20T05:46:26;14.40;82.40
41557;DHT22;27720;51.992;5.890;2023-05-20T05:48:52;14.40;82.40
41557;DHT22;27720;51.992;5.890;2023-05-20T05:51:17;14.50;82.30
41557;DHT22;27720;51.992;5.890;2023-05-20T05:53:44;14.60;82.20
41557;DHT22;27720;51.992;5.890;2023-05-20T05:56:09;14.60;82.00
41557;DHT22;27720;51.992;5.890;2023-05-20T05:58:36;14.70;81.80
41557;DHT22;27720;51.992;5.890;2023-05-20T06:01:04;14.80;81.60
41557;DHT22;27720;51.992;5.890;2023-05-20T06:03:30;14.90;81.60
41557;DHT22;27720;51.992;5.890;2023-05-20T06:05:56;14.90;81.50
41557;DHT22;27720;51.992;5.890;2023-05-20T06:08:22;15.00;81.50
41557;DHT22;27720;51.992;5.890;2023-05-20T06:10:49;15.10;81.40
41557;DHT22;27720;51.992;5.890;2023-05-20T06:13:15;15.10;81.30
41557;DHT22;27720;51.992;5.890;2023-05-20T06:15:41;15.20;81.30
41557;DHT22;27720;51.992;5.890;2023-05-20T06:18:11;15.30;81.10
41557;DHT22;27720;51.992;5.890;2023-05-20T06:20:37;15.40;81.70
41557;DHT22;27720;51.992;5.890;2023-05-20T06:23:03;15.50;81.00
41557;DHT22;27720;51.992;5.890;2023-05-20T06:25:38;15.60;80.80
41557;DHT22;27720;51.992;5.890;2023-05-20T06:28:04;15.60;80.70
41557;DHT22;27720;51.992;5.890;2023-05-20T06:30:30;15.70;80.50
41557;DHT22;27720;51.992;5.890;2023-05-20T06:32:59;15.80;80.40
41557;DHT22;27720;51.992;5.890;2023-05-20T06:35:25;15.80;80.20
41557;DHT22;27720;51.992;5.890;2023-05-20T06:37:53;16.00;80.00
41557;DHT22;27720;51.992;5.890;2023-05-20T06:40:20;16.10;79.80
41557;DHT22;27720;51.992;5.890;2023-05-20T06:42:45;16.20;79.60
41557;DHT22;27720;51.992;5.890;2023-05-20T06:45:12;16.30;79.50
41557;DHT22;27720;51.992;5.890;2023-05-20T06:47:47;16.40;79.20
41557;DHT22;27720;51.992;5.890;2023-05-20T06:50:14;16.50;79.00
41557;DHT22;27720;51.992;5.890;2023-05-20T06:52:40;16.70;78.80
41557;DHT22;27720;51.992;5.890;2023-05-20T06:55:06;16.80;78.40
41557;DHT22;27720;51.992;5.890;2023-05-20T06:57:33;16.90;78.10
41557;DHT22;27720;51.992;5.890;2023-05-20T06:59:59;17.00;77.90
41557;DHT22;27720;51.992;5.890;2023-05-20T07:02:25;17.10;77.70
41557;DHT22;27720;51.992;5.890;2023-05-20T07:04:52;17.20;77.50
41557;DHT22;27720;51.992;5.890;2023-05-20T07:07:18;17.30;77.20
41557;DHT22;27720;51.992;5.890;2023-05-20T07:09:48;17.40;76.50
41557;DHT22;27720;51.992;5.890;2023-05-20T07:12:14;17.50;76.10
41557;DHT22;27720;51.992;5.890;2023-05-20T07:14:41;17.70;76.10
41557;DHT22;27720;51.992;5.890;2023-05-20T07:17:07;17.80;75.80
41557;DHT22;27720;51.992;5.890;2023-05-20T07:19:33;17.90;75.30
41557;DHT22;27720;51.992;5.890;2023-05-20T07:21:59;18.10;75.10
41557;DHT22;27720;51.992;5.890;2023-05-20T07:24:45;18.30;75.40
41557;DHT22;27720;51.992;5.890;2023-05-20T07:27:11;18.40;74.50
41557;DHT22;27720;51.992;5.890;2023-05-20T07:29:38;18.50;74.00
41557;DHT22;27720;51.992;5.890;2023-05-20T07:32:04;18.70;73.60
41557;DHT22;27720;51.992;5.890;2023-05-20T07:34:30;18.80;72.90
41557;DHT22;27720;51.992;5.890;2023-05-20T07:36:56;18.90;72.50
41557;DHT22;27720;51.992;5.890;2023-05-20T07:39:22;18.90;71.20
41557;DHT22;27720;51.992;5.890;2023-05-20T07:41:48;19.00;71.10
41557;DHT22;27720;51.992;5.890;2023-05-20T07:44:14;19.10;70.50
41557;DHT22;27720;51.992;5.890;2023-05-20T07:46:44;19.10;70.40
41557;DHT22;27720;51.992;5.890;2023-05-20T07:49:10;19.10;70.00
41557;DHT22;27720;51.992;5.890;2023-05-20T07:51:38;19.20;69.70
41557;DHT22;27720;51.992;5.890;2023-05-20T07:54:04;19.40;69.20
41557;DHT22;27720;51.992;5.890;2023-05-20T07:56:30;19.50;68.80
41557;DHT22;27720;51.992;5.890;2023-05-20T07:58:58;19.60;68.20
41557;DHT22;27720;51.992;5.890;2023-05-20T08:01:28;19.70;67.30
41557;DHT22;27720;51.992;5.890;2023-05-20T08:03:55;19.80;67.10
41557;DHT22;27720;51.992;5.890;2023-05-20T08:06:22;19.90;66.80
41557;DHT22;27720;51.992;5.890;2023-05-20T08:08:51;20.00;66.70
41557;DHT22;27720;51.992;5.890;2023-05-20T08:11:26;20.10;66.20
41557;DHT22;27720;51.992;5.890;2023-05-20T08:13:52;20.20;65.30
41557;DHT22;27720;51.992;5.890;2023-05-20T08:16:20;20.20;65.20
41557;DHT22;27720;51.992;5.890;2023-05-20T08:18:46;20.20;64.50
41557;DHT22;27720;51.992;5.890;2023-05-20T08:21:13;20.30;64.10
41557;DHT22;27720;51.992;5.890;2023-05-20T08:23:40;20.30;63.90
41557;DHT22;27720;51.992;5.890;2023-05-20T08:26:05;20.40;63.40
41557;DHT22;27720;51.992;5.890;2023-05-20T08:28:33;20.40;62.90
41557;DHT22;27720;51.992;5.890;2023-05-20T08:31:00;20.50;63.00
41557;DHT22;27720;51.992;5.890;2023-05-20T08:33:28;20.60;62.70
41557;DHT22;27720;51.992;5.890;2023-05-20T08:35:57;20.70;62.60
41557;DHT22;27720;51.992;5.890;2023-05-20T08:38:23;20.80;62.80
41557;DHT22;27720;51.992;5.890;2023-05-20T08:40:56;21.10;62.80
41557;DHT22;27720;51.992;5.890;2023-05-20T08:43:23;21.30;62.50
41557;DHT22;27720;51.992;5.890;2023-05-20T08:45:49;21.40;61.90
41557;DHT22;27720;51.992;5.890;2023-05-20T08:48:18;21.50;61.40
41557;DHT22;27720;51.992;5.890;2023-05-20T08:50:52;21.60;61.00
41557;DHT22;27720;51.992;5.890;2023-05-20T08:53:19;21.60;60.20
41557;DHT22;27720;51.992;5.890;2023-05-20T08:55:52;21.60;59.70
41557;DHT22;27720;51.992;5.890;2023-05-20T08:58:20;21.70;59.50
41557;DHT22;27720;51.992;5.890;2023-05-20T09:00:46;21.80;59.50
41557;DHT22;27720;51.992;5.890;2023-05-20T09:03:12;21.90;59.00
41557;DHT22;27720;51.992;5.890;2023-05-20T09:05:37;22.00;58.80
41557;DHT22;27720;51.992;5.890;2023-05-20T09:08:06;22.00;58.30
41557;DHT22;27720;51.992;5.890;2023-05-20T09:10:33;22.10;57.90
41557;DHT22;27720;51.992;5.890;2023-05-20T09:13:00;22.00;57.30
41557;DHT22;27720;51.992;5.890;2023-05-20T09:15:27;22.20;57.40
41557;DHT22;27720;51.992;5.890;2023-05-20T09:17:53;22.20;57.30
41557;DHT22;27720;51.992;5.890;2023-05-20T09:20:20;22.40;57.20
41557;DHT22;27720;51.992;5.890;2023-05-20T09:22:52;22.50;57.00
41557;DHT22;27720;51.992;5.890;2023-05-20T09:25:19;22.60;56.90
41557;DHT22;27720;51.992;5.890;2023-05-20T09:27:45;22.80;56.70
41557;DHT22;27720;51.992;5.890;2023-05-20T09:30:12;22.90;55.40
41557;DHT22;27720;51.992;5.890;2023-05-20T09:32:41;22.90;55.60
41557;DHT22;27720;51.992;5.890;2023-05-20T09:35:07;22.90;55.80
41557;DHT22;27720;51.992;5.890;2023-05-20T09:37:33;23.10;56.00
41557;DHT22;27720;51.992;5.890;2023-05-20T09:40:03;23.20;55.50
41557;DHT22;27720;51.992;5.890;2023-05-20T09:42:40;23.30;55.10
41557;DHT22;27720;51.992;5.890;2023-05-20T09:45:07;23.30;54.60
41557;DHT22;27720;51.992;5.890;2023-05-20T09:47:38;23.10;53.70
41557;DHT22;27720;51.992;5.890;2023-05-20T09:50:07;22.90;53.60
41557;DHT22;27720;51.992;5.890;2023-05-20T09:52:35;22.90;54.70
41557;DHT22;27720;51.992;5.890;2023-05-20T09:55:02;23.00;54.90
41557;DHT22;27720;51.992;5.890;2023-05-20T09:57:33;23.00;54.10
41557;DHT22;27720;51.992;5.890;2023-05-20T09:59:58;22.90;54.00
41557;DHT22;27720;51.992;5.890;2023-05-20T10:02:24;23.00;53.90
41557;DHT22;27720;51.992;5.890;2023-05-20T10:04:51;23.20;54.10
41557;DHT22;27720;51.992;5.890;2023-05-20T10:15:15;23.70;53.10
41557;DHT22;27720;51.992;5.890;2023-05-20T10:17:57;23.80;53.10
41557;DHT22;27720;51.992;5.890;2023-05-20T10:20:26;23.90;53.20
41557;DHT22;27720;51.992;5.890;2023-05-20T10:22:56;24.10;53.20
41557;DHT22;27720;51.992;5.890;2023-05-20T10:25:28;24.20;52.60
41557;DHT22;27720;51.992;5.890;2023-05-20T10:28:07;24.30;52.40
41557;DHT22;27720;51.992;5.890;2023-05-20T10:30:33;24.50;52.10
41557;DHT22;27720;51.992;5.890;2023-05-20T10:33:03;24.50;51.90
41557;DHT22;27720;51.992;5.890;2023-05-20T10:35:29;24.60;51.80
41557;DHT22;27720;51.992;5.890;2023-05-20T10:38:07;24.80;51.90
41557;DHT22;27720;51.992;5.890;2023-05-20T10:40:33;25.00;51.60
41557;DHT22;27720;51.992;5.890;2023-05-20T10:43:15;25.20;51.60
41557;DHT22;27720;51.992;5.890;2023-05-20T10:45:52;25.30;51.20
41557;DHT22;27720;51.992;5.890;2023-05-20T10:48:30;25.40;51.20
41557;DHT22;27720;51.992;5.890;2023-05-20T10:51:00;25.50;50.80
41557;DHT22;27720;51.992;5.890;2023-05-20T10:53:37;25.60;50.70
41557;DHT22;27720;51.992;5.890;2023-05-20T10:56:03;25.60;49.80
41557;DHT22;27720;51.992;5.890;2023-05-20T10:58:37;25.50;50.10
41557;DHT22;27720;51.992;5.890;2023-05-20T11:01:03;25.60;50.00
41557;DHT22;27720;51.992;5.890;2023-05-20T11:03:29;25.50;49.70
41557;DHT22;27720;51.992;5.890;2023-05-20T11:05:55;25.50;49.10
41557;DHT22;27720;51.992;5.890;2023-05-20T11:08:21;25.30;49.00
41557;DHT22;27720;51.992;5.890;2023-05-20T11:10:47;25.30;49.00
41557;DHT22;27720;51.992;5.890;2023-05-20T11:13:13;25.30;49.30
41557;DHT22;27720;51.992;5.890;2023-05-20T11:15:40;25.30;49.00
41557;DHT22;27720;51.992;5.890;2023-05-20T11:18:06;25.30;49.00
41557;DHT22;27720;51.992;5.890;2023-05-20T11:20:32;25.40;49.00
41557;DHT22;27720;51.992;5.890;2023-05-20T11:23:04;25.60;49.50
41557;DHT22;27720;51.992;5.890;2023-05-20T11:25:32;25.90;49.40
41557;DHT22;27720;51.992;5.890;2023-05-20T11:27:58;26.10;48.90
41557;DHT22;27720;51.992;5.890;2023-05-20T11:30:24;26.20;49.00
41557;DHT22;27720;51.992;5.890;2023-05-20T11:33:00;26.40;48.20
41557;DHT22;27720;51.992;5.890;2023-05-20T11:35:28;26.40;47.60
41557;DHT22;27720;51.992;5.890;2023-05-20T11:38:04;26.20;48.10
41557;DHT22;27720;51.992;5.890;2023-05-20T11:40:31;26.30;48.40
41557;DHT22;27720;51.992;5.890;2023-05-20T11:43:02;26.30;48.60
41557;DHT22;27720;51.992;5.890;2023-05-20T11:45:51;26.00;48.00
41557;DHT22;27720;51.992;5.890;2023-05-20T11:48:18;25.80;48.30
41557;DHT22;27720;51.992;5.890;2023-05-20T11:50:45;25.70;48.90
41557;DHT22;27720;51.992;5.890;2023-05-20T11:53:18;25.80;49.10
41557;DHT22;27720;51.992;5.890;2023-05-20T11:55:51;25.90;49.30
41557;DHT22;27720;51.992;5.890;2023-05-20T11:58:19;26.00;49.30
41557;DHT22;27720;51.992;5.890;2023-05-20T12:00:45;26.10;49.30
41557;DHT22;27720;51.992;5.890;2023-05-20T12:03:11;26.10;49.20
41557;DHT22;27720;51.992;5.890;2023-05-20T12:05:37;26.20;49.10
41557;DHT22;27720;51.992;5.890;2023-05-20T12:08:03;26.20;48.80
41557;DHT22;27720;51.992;5.890;2023-05-20T12:10:29;26.20;48.90
41557;DHT22;27720;51.992;5.890;2023-05-20T12:12:55;26.30;48.80
41557;DHT22;27720;51.992;5.890;2023-05-20T12:15:21;26.20;48.10
41557;DHT22;27720;51.992;5.890;2023-05-20T12:17:49;26.20;48.50
41557;DHT22;27720;51.992;5.890;2023-05-20T12:20:16;26.20;48.40
41557;DHT22;27720;51.992;5.890;2023-05-20T12:22:44;26.30;48.10
41557;DHT22;27720;51.992;5.890;2023-05-20T12:25:14;26.30;48.00
41557;DHT22;27720;51.992;5.890;2023-05-20T12:27:41;26.10;48.20
41557;DHT22;27720;51.992;5.890;2023-05-20T12:30:08;26.10;48.30
41557;DHT22;27720;51.992;5.890;2023-05-20T12:32:37;26.00;48.10
41557;DHT22;27720;51.992;5.890;2023-05-20T12:35:03;25.80;48.00
41557;DHT22;27720;51.992;5.890;2023-05-20T12:37:29;25.70;48.40
41557;DHT22;27720;51.992;5.890;2023-05-20T12:39:55;25.50;48.50
41557;DHT22;27720;51.992;5.890;2023-05-20T12:42:21;25.40;48.60
41557;DHT22;27720;51.992;5.890;2023-05-20T12:44:47;25.20;48.80
41557;DHT22;27720;51.992;5.890;2023-05-20T12:47:12;25.10;49.20
41557;DHT22;27720;51.992;5.890;2023-05-20T12:49:38;25.00;49.30
41557;DHT22;27720;51.992;5.890;2023-05-20T12:52:04;25.00;49.50
41557;DHT22;27720;51.992;5.890;2023-05-20T12:54:30;25.00;49.70
41557;DHT22;27720;51.992;5.890;2023-05-20T12:56:56;25.10;49.90
41557;DHT22;27720;51.992;5.890;2023-05-20T12:59:21;25.20;50.00
41557;DHT22;27720;51.992;5.890;2023-05-20T13:01:47;25.20;49.90
41557;DHT22;27720;51.992;5.890;2023-05-20T13:04:13;25.20;50.00
41557;DHT22;27720;51.992;5.890;2023-05-20T13:06:38;25.40;50.00
41557;DHT22;27720;51.992;5.890;2023-05-20T13:09:04;25.50;49.90
41557;DHT22;27720;51.992;5.890;2023-05-20T13:11:30;25.50;49.60
41557;DHT22;27720;51.992;5.890;2023-05-20T13:13:55;25.60;49.70
41557;DHT22;27720;51.992;5.890;2023-05-20T13:16:25;25.70;49.70
41557;DHT22;27720;51.992;5.890;2023-05-20T13:18:51;25.80;49.80
41557;DHT22;27720;51.992;5.890;2023-05-20T13:21:17;25.80;49.80
41557;DHT22;27720;51.992;5.890;2023-05-20T13:23:42;25.60;49.70
41557;DHT22;27720;51.992;5.890;2023-05-20T13:26:08;25.60;49.80
41557;DHT22;27720;51.992;5.890;2023-05-20T13:28:34;25.50;50.00
41557;DHT22;27720;51.992;5.890;2023-05-20T13:31:04;25.40;50.10
41557;DHT22;27720;51.992;5.890;2023-05-20T13:33:31;25.30;50.00
41557;DHT22;27720;51.992;5.890;2023-05-20T13:35:56;25.30;50.20
41557;DHT22;27720;51.992;5.890;2023-05-20T13:38:22;25.30;50.20
41557;DHT22;27720;51.992;5.890;2023-05-20T13:40:48;25.40;50.30
41557;DHT22;27720;51.992;5.890;2023-05-20T13:43:14;25.40;50.10
41557;DHT22;27720;51.992;5.890;2023-05-20T13:45:40;25.40;50.20
41557;DHT22;27720;51.992;5.890;2023-05-20T13:48:06;25.40;50.40
41557;DHT22;27720;51.992;5.890;2023-05-20T13:50:32;25.40;50.40
41557;DHT22;27720;51.992;5.890;2023-05-20T13:52:58;25.40;50.30
41557;DHT22;27720;51.992;5.890;2023-05-20T13:55:23;25.60;50.40
41557;DHT22;27720;51.992;5.890;2023-05-20T13:57:49;25.70;50.10
41557;DHT22;27720;51.992;5.890;2023-05-20T14:00:20;25.70;49.90
41557;DHT22;27720;51.992;5.890;2023-05-20T14:02:46;25.70;49.90
41557;DHT22;27720;51.992;5.890;2023-05-20T14:05:12;25.80;49.90
41557;DHT22;27720;51.992;5.890;2023-05-20T14:07:37;25.90;50.00
41557;DHT22;27720;51.992;5.890;2023-05-20T14:10:04;26.00;50.10
41557;DHT22;27720;51.992;5.890;2023-05-20T14:12:30;25.90;49.70
41557;DHT22;27720;51.992;5.890;2023-05-20T14:14:56;25.70;49.40
41557;DHT22;27720;51.992;5.890;2023-05-20T14:17:22;25.50;49.70
41557;DHT22;27720;51.992;5.890;2023-05-20T14:19:47;25.40;50.00
41557;DHT22;27720;51.992;5.890;2023-05-20T14:22:13;25.40;50.00
41557;DHT22;27720;51.992;5.890;2023-05-20T14:24:40;25.40;50.00
41557;DHT22;27720;51.992;5.890;2023-05-20T14:27:06;25.50;49.90
41557;DHT22;27720;51.992;5.890;2023-05-20T14:29:31;25.60;49.50
41557;DHT22;27720;51.992;5.890;2023-05-20T14:31:57;25.80;49.40
41557;DHT22;27720;51.992;5.890;2023-05-20T14:34:23;25.90;49.30
41557;DHT22;27720;51.992;5.890;2023-05-20T14:36:48;26.10;49.20
41557;DHT22;27720;51.992;5.890;2023-05-20T14:39:14;26.00;49.60
41557;DHT22;27720;51.992;5.890;2023-05-20T14:41:39;26.00;49.10
41557;DHT22;27720;51.992;5.890;2023-05-20T14:44:05;26.10;49.30
41557;DHT22;27720;51.992;5.890;2023-05-20T14:46:31;26.20;49.30
41557;DHT22;27720;51.992;5.890;2023-05-20T14:49:00;26.10;48.90
41557;DHT22;27720;51.992;5.890;2023-05-20T14:51:25;25.90;48.80
41557;DHT22;27720;51.992;5.890;2023-05-20T14:53:51;25.80;49.10
41557;DHT22;27720;51.992;5.890;2023-05-20T14:56:17;25.60;49.20
41557;DHT22;27720;51.992;5.890;2023-05-20T14:58:43;25.50;49.20
41557;DHT22;27720;51.992;5.890;2023-05-20T15:01:08;25.40;49.50
41557;DHT22;27720;51.992;5.890;2023-05-20T15:03:34;25.30;49.40
41557;DHT22;27720;51.992;5.890;2023-05-20T15:06:00;25.30;49.70
41557;DHT22;27720;51.992;5.890;2023-05-20T15:08:25;25.20;49.70
41557;DHT22;27720;51.992;5.890;2023-05-20T15:10:51;25.20;49.70
41557;DHT22;27720;51.992;5.890;2023-05-20T15:13:17;25.00;49.60
41557;DHT22;27720;51.992;5.890;2023-05-20T15:15:42;25.00;49.90
41557;DHT22;27720;51.992;5.890;2023-05-20T15:18:08;25.00;50.10
41557;DHT22;27720;51.992;5.890;2023-05-20T15:20:34;25.00;50.20
41557;DHT22;27720;51.992;5.890;2023-05-20T15:22:59;24.90;49.90
41557;DHT22;27720;51.992;5.890;2023-05-20T15:25:25;24.90;50.10
41557;DHT22;27720;51.992;5.890;2023-05-20T15:27:51;24.80;50.20
41557;DHT22;27720;51.992;5.890;2023-05-20T15:30:17;24.70;50.20
41557;DHT22;27720;51.992;5.890;2023-05-20T15:32:42;24.60;50.40
41557;DHT22;27720;51.992;5.890;2023-05-20T15:35:08;24.60;50.50
41557;DHT22;27720;51.992;5.890;2023-05-20T15:37:34;24.60;50.50